Luna, New Mexico
Current Conditions -  °F | °C
As of 3:15 AM on Tuesday 27 Jan 2015 (Local Time) from KJTC Reporting Station
Overcast Overcast  
Wind Chill:   Ceiling: 12000
Heat Index:   Visibility: 10mi
Dew Point:   Wind: 6mph
Humidity: 66%   Direction: 210°SSW
Pressure: 30.35"   Gusts: NA
Location:  33.82°N, 108.95°W
Report Text: KJTC 271015Z AUTO 21005KT 10SM OVC120 06/00 A3035 RMK AO2
Loading
Personal Weather Stations






























Interactive Weather Map New forecast layout! Learn more

10-Day Weather Forecast

Advertisements
Track Severe Weather on mobile